Time;durP1;ratioP1;P1;durP2;ratioP2;P2;SDS_P1;SDS_P2;PMS_P1;PMS_P2;Temp;Humidity;BMP_temperature;BMP_pressure;BME280_temperature;BME280_humidity;BME280_pressure;Samples;Min_cycle;Max_cycle;Signal;HPM_P1;HPM_P2
2022/10/21 00:01:15;;;;;;;11.65;9.75;;;14.50;99.90;;;;;;5082720;28;20041;-40
2022/10/21 00:03:41;;;;;;;13.13;8.88;;;14.50;99.90;;;;;;5067028;28;20032;-40
2022/10/21 00:06:07;;;;;;;11.15;8.48;;;14.50;99.90;;;;;;5067626;28;20020;-38
2022/10/21 00:08:33;;;;;;;10.20;8.48;;;14.60;99.90;;;;;;5075165;28;20031;-39
2022/10/21 00:11:00;;;;;;;11.60;9.07;;;14.60;99.90;;;;;;5063093;28;20237;-41
2022/10/21 00:13:28;;;;;;;10.10;8.25;;;14.60;99.90;;;;;;5073879;28;20063;-39
2022/10/21 00:16:01;;;;;;;14.35;9.32;;;14.70;99.90;;;;;;5061898;28;20017;-39
2022/10/21 00:18:27;;;;;;;;;;;14.70;99.90;;;;;;5072434;28;20696;-41
2022/10/21 00:20:52;;;;;;;10.98;8.73;;;14.70;99.90;;;;;;5064502;28;19908;-39
2022/10/21 00:23:18;;;;;;;12.38;8.50;;;14.80;99.90;;;;;;5068667;28;20039;-41
2022/10/21 00:25:43;;;;;;;10.45;8.30;;;14.70;99.90;;;;;;5067620;28;20031;-41
2022/10/21 00:28:09;;;;;;;9.65;8.40;;;14.70;99.90;;;;;;5067223;28;20027;-39
2022/10/21 00:30:34;;;;;;;10.45;8.70;;;14.80;99.90;;;;;;5068973;28;20051;-40
2022/10/21 00:33:00;;;;;;;11.18;8.55;;;14.80;99.90;;;;;;5065204;28;20125;-40
2022/10/21 00:35:35;;;;;;;8.95;8.00;;;14.80;99.90;;;;;;5072278;28;20025;-40
2022/10/21 00:38:00;;;;;;;9.27;8.02;;;14.80;99.90;;;;;;5063609;28;20387;-39
2022/10/21 00:40:26;;;;;;;9.35;8.35;;;14.80;99.90;;;;;;5072966;28;20024;-40
2022/10/21 00:42:51;;;;;;;10.27;9.20;;;14.80;99.90;;;;;;5064131;28;20040;-40
2022/10/21 00:45:29;;;;;;;9.15;8.20;;;14.80;99.90;;;;;;5072692;28;20032;-39
2022/10/21 00:48:03;;;;;;;10.65;9.00;;;14.70;99.90;;;;;;5063853;28;20024;-39
2022/10/21 00:50:35;;;;;;;9.43;8.00;;;14.70;99.90;;;;;;5073258;28;20040;-38
2022/10/21 00:53:02;;;;;;;9.65;7.63;;;14.70;99.90;;;;;;5062626;28;20513;-39
2022/10/21 00:55:31;;;;;;;11.60;8.32;;;14.70;99.90;;;;;;5073699;28;20498;-38
2022/10/21 00:57:57;;;;;;;9.40;8.50;;;14.70;99.90;;;;;;5062077;28;20413;-37
2022/10/21 01:00:23;;;;;;;10.63;8.40;;;14.70;99.90;;;;;;5074661;28;20475;-38
2022/10/21 01:02:54;;;;;;;9.07;7.95;;;14.70;99.90;;;;;;5062960;28;20570;-40
2022/10/21 01:05:21;;;;;;;10.05;9.05;;;14.80;99.90;;;;;;5074188;28;20024;-40
2022/10/21 01:07:50;;;;;;;10.18;8.45;;;14.70;99.90;;;;;;5062692;28;20024;-40
2022/10/21 01:10:16;;;;;;;12.20;8.88;;;14.70;99.90;;;;;;5073335;28;20028;-40
2022/10/21 01:13:10;;;;;;;10.68;9.00;;;14.70;99.90;;;;;;5062282;28;20934;-39
2022/10/21 01:15:57;;;;;;;9.73;8.25;;;14.70;99.90;;;;;;5075426;28;20032;-37
2022/10/21 01:18:29;;;;;;;10.75;8.85;;;14.70;99.90;;;;;;5062446;28;20037;-36
2022/10/21 01:21:19;;;;;;;10.13;9.00;;;14.70;99.90;;;;;;5074540;28;20104;-39
2022/10/21 01:23:59;;;;;;;11.55;9.48;;;14.70;99.90;;;;;;5061594;28;20140;-39
2022/10/21 01:26:30;;;;;;;11.90;9.27;;;14.70;99.90;;;;;;5068059;28;20034;-36
2022/10/21 01:29:28;;;;;;;11.55;9.25;;;14.70;99.90;;;;;;5081666;28;20753;-40
2022/10/21 01:32:02;;;;;;;12.15;9.65;;;14.70;99.90;;;;;;5072513;28;20427;-39
2022/10/21 01:34:52;;;;;;;13.00;9.45;;;14.70;99.90;;;;;;5062983;28;20539;-38
2022/10/21 01:37:44;;;;;;;13.32;9.55;;;14.60;99.90;;;;;;5072515;28;20078;-36
2022/10/21 01:40:16;;;;;;;11.10;9.25;;;14.60;99.90;;;;;;5063010;28;20810;-38
2022/10/21 01:42:51;;;;;;;11.65;9.43;;;14.60;99.90;;;;;;5074890;28;20043;-40
2022/10/21 01:45:30;;;;;;;11.05;9.43;;;14.50;99.90;;;;;;5066451;28;20042;-41
2022/10/21 01:48:01;;;;;;;10.48;9.10;;;14.50;99.90;;;;;;5074705;28;20521;-37
2022/10/21 01:50:32;;;;;;;11.40;9.73;;;14.50;99.90;;;;;;5065445;28;20017;-39
2022/10/21 01:53:04;;;;;;;11.25;9.25;;;14.50;99.90;;;;;;5075808;28;20081;-40
2022/10/21 01:55:31;;;;;;;10.52;9.02;;;14.50;99.90;;;;;;5082359;28;20078;-39
2022/10/21 01:58:05;;;;;;;10.20;9.10;;;14.50;99.90;;;;;;5074503;28;20027;-40
2022/10/21 02:00:34;;;;;;;10.73;9.10;;;14.50;99.90;;;;;;5084002;28;20058;-40
2022/10/21 02:03:03;;;;;;;9.48;8.48;;;14.50;99.90;;;;;;5073819;28;20127;-38
2022/10/21 02:05:30;;;;;;;13.32;9.05;;;14.50;99.90;;;;;;5083905;28;20836;-38
2022/10/21 02:07:56;;;;;;;10.07;8.77;;;14.50;99.90;;;;;;5076728;28;20464;-41
2022/10/21 02:10:24;;;;;;;9.90;8.65;;;14.50;99.90;;;;;;5064660;28;20120;-39
2022/10/21 02:12:54;;;;;;;11.57;9.68;;;14.50;99.90;;;;;;5078492;28;20043;-37
2022/10/21 02:15:22;;;;;;;10.32;9.18;;;14.50;99.90;;;;;;5064687;28;20036;-40
2022/10/21 02:18:02;;;;;;;11.35;9.30;;;14.60;99.90;;;;;;5077936;28;20141;-40
2022/10/21 02:20:30;;;;;;;9.82;8.82;;;14.50;99.90;;;;;;5065095;28;20036;-40
2022/10/21 02:22:55;;;;;;;11.77;9.43;;;14.50;99.90;;;;;;5077832;28;20028;-38
2022/10/21 02:25:26;;;;;;;11.73;9.60;;;14.50;99.90;;;;;;5064644;28;20035;-40
2022/10/21 02:27:53;;;;;;;10.32;9.00;;;14.40;99.90;;;;;;5076909;28;20036;-40
2022/10/21 02:30:19;;;;;;;12.18;9.77;;;14.40;99.90;;;;;;5065224;28;20360;-41
2022/10/21 02:33:07;;;;;;;11.38;9.93;;;14.40;99.90;;;;;;5073924;28;20571;-40
2022/10/21 02:35:47;;;;;;;10.65;9.45;;;14.40;99.90;;;;;;5064961;28;20494;-40
2022/10/21 02:38:27;;;;;;;10.65;9.57;;;14.30;99.90;;;;;;5075176;28;20819;-40
2022/10/21 02:41:01;;;;;;;11.30;9.45;;;14.30;99.90;;;;;;5065577;28;20046;-41
2022/10/21 02:43:37;;;;;;;12.10;10.68;;;14.20;99.90;;;;;;5075205;28;20543;-40
2022/10/21 02:46:08;;;;;;;12.95;9.88;;;14.20;99.90;;;;;;5064483;28;20028;-39
2022/10/21 02:48:35;;;;;;;12.00;10.25;;;14.20;99.90;;;;;;5075556;28;20021;-39
2022/10/21 02:51:03;;;;;;;11.43;9.73;;;14.20;99.90;;;;;;5063951;28;20034;-40
2022/10/21 02:53:29;;;;;;;14.23;10.32;;;14.20;99.90;;;;;;5071325;28;20047;-38
2022/10/21 02:55:57;;;;;;;13.00;9.85;;;14.20;99.90;;;;;;5065142;28;20021;-40
2022/10/21 02:58:23;;;;;;;11.00;9.90;;;14.10;99.90;;;;;;5070531;28;20020;-39
2022/10/21 03:00:48;;;;;;;12.43;9.98;;;14.10;99.90;;;;;;5070554;28;20480;-41
2022/10/21 03:03:16;;;;;;;13.50;10.20;;;14.10;99.90;;;;;;5068601;28;20463;-41
2022/10/21 03:05:42;;;;;;;12.60;10.05;;;14.10;99.90;;;;;;5071603;28;20028;-41
2022/10/21 03:08:08;;;;;;;13.40;10.18;;;14.10;99.90;;;;;;5066732;28;20491;-38
2022/10/21 03:10:33;;;;;;;13.23;10.13;;;14.10;99.90;;;;;;5074334;28;20136;-40
2022/10/21 03:12:59;;;;;;;13.30;10.02;;;14.10;99.90;;;;;;5064831;28;20032;-39
2022/10/21 03:15:25;;;;;;;12.70;10.30;;;14.10;99.90;;;;;;5075003;28;20030;-39
2022/10/21 03:17:50;;;;;;;12.63;10.75;;;14.10;99.90;;;;;;5065439;28;20118;-38
2022/10/21 03:20:16;;;;;;;13.20;10.50;;;14.10;99.90;;;;;;5075181;28;20025;-39
2022/10/21 03:22:43;;;;;;;13.43;10.13;;;14.10;99.90;;;;;;5064403;28;20032;-38
2022/10/21 03:25:09;;;;;;;12.40;10.50;;;14.10;99.90;;;;;;5076837;28;20028;-38
2022/10/21 03:27:34;;;;;;;16.17;11.65;;;14.10;99.90;;;;;;5063231;28;20203;-40
2022/10/21 03:30:00;;;;;;;12.73;10.60;;;14.10;99.90;;;;;;5077205;28;20151;-38
2022/10/21 03:32:26;;;;;;;14.00;10.57;;;14.10;99.90;;;;;;5062240;28;20102;-39
2022/10/21 03:34:51;;;;;;;14.00;10.43;;;14.10;99.90;;;;;;5073464;28;20595;-40
2022/10/21 03:37:17;;;;;;;16.17;10.70;;;14.10;99.90;;;;;;5066325;28;20862;-37
2022/10/21 03:39:42;;;;;;;12.10;9.77;;;14.10;99.90;;;;;;5069835;28;20145;-38
2022/10/21 03:42:08;;;;;;;12.63;10.55;;;14.10;99.90;;;;;;5069018;28;20033;-40
2022/10/21 03:44:33;;;;;;;11.55;10.35;;;14.10;99.90;;;;;;5067893;28;20032;-40
2022/10/21 03:46:59;;;;;;;12.40;10.02;;;14.10;99.90;;;;;;5071809;28;20021;-36
2022/10/21 03:49:24;;;;;;;13.15;10.18;;;14.10;99.90;;;;;;5064633;28;20118;-39
2022/10/21 03:51:50;;;;;;;12.80;10.25;;;14.10;99.90;;;;;;5073395;28;20074;-40
2022/10/21 03:54:16;;;;;;;14.48;10.50;;;14.00;99.90;;;;;;5063111;28;20032;-38
2022/10/21 03:56:42;;;;;;;11.93;10.23;;;14.00;99.90;;;;;;5073599;28;20034;-40
2022/10/21 03:59:08;;;;;;;12.63;10.57;;;14.00;99.90;;;;;;5062467;28;20540;-40
2022/10/21 04:01:33;;;;;;;12.52;10.82;;;14.00;99.90;;;;;;5069821;28;20024;-40
2022/10/21 04:03:59;;;;;;;12.32;10.23;;;14.00;99.90;;;;;;5082752;28;20580;-42
2022/10/21 04:06:25;;;;;;;13.77;9.90;;;14.00;99.90;;;;;;5069921;28;20884;-39
2022/10/21 04:08:50;;;;;;;12.52;10.30;;;14.00;99.90;;;;;;5083769;28;20020;-39
2022/10/21 04:11:16;;;;;;;12.52;9.80;;;14.00;99.90;;;;;;5072220;28;20032;-40
2022/10/21 04:13:41;;;;;;;11.45;9.88;;;14.00;99.90;;;;;;5081827;28;20032;-39
2022/10/21 04:16:12;;;;;;;12.95;10.10;;;14.00;99.90;;;;;;5073515;28;20074;-40
2022/10/21 04:18:38;;;;;;;11.57;9.73;;;13.90;99.90;;;;;;5078641;28;20040;-42
2022/10/21 04:21:04;;;;;;;12.75;10.00;;;13.90;99.90;;;;;;5076238;28;20468;-39
2022/10/21 04:23:29;;;;;;;11.35;9.32;;;13.90;99.90;;;;;;5076187;28;20024;-39
2022/10/21 04:25:57;;;;;;;14.10;9.65;;;13.90;99.90;;;;;;5079084;28;20024;-40
2022/10/21 04:28:23;;;;;;;13.82;9.75;;;13.90;99.90;;;;;;5074936;28;20071;-37
2022/10/21 04:30:49;;;;;;;12.02;9.75;;;13.90;99.90;;;;;;5081170;28;20778;-39
2022/10/21 04:33:15;;;;;;;11.85;9.82;;;13.90;99.90;;;;;;5071793;28;20069;-40
2022/10/21 04:35:40;;;;;;;11.95;10.10;;;13.90;99.90;;;;;;5080830;28;20218;-40
2022/10/21 04:38:06;;;;;;;12.82;10.27;;;13.90;99.90;;;;;;5071111;28;20355;-41
2022/10/21 04:40:32;;;;;;;11.10;9.52;;;13.80;99.90;;;;;;5082369;28;20024;-41
2022/10/21 04:42:57;;;;;;;12.57;10.05;;;13.80;99.90;;;;;;5069804;28;20677;-40
2022/10/21 04:45:23;;;;;;;10.85;9.15;;;13.80;99.90;;;;;;5082818;28;20539;-40
2022/10/21 04:47:48;;;;;;;12.63;9.90;;;13.70;99.90;;;;;;5070271;28;20032;-38
2022/10/21 04:50:14;;;;;;;12.80;9.98;;;13.80;99.90;;;;;;5081954;28;20028;-40
2022/10/21 04:52:40;;;;;;;11.85;9.68;;;13.80;99.90;;;;;;5071310;28;20078;-40
2022/10/21 04:55:06;;;;;;;11.48;9.70;;;13.70;99.90;;;;;;5067628;28;20057;-40
2022/10/21 04:57:31;;;;;;;12.18;9.13;;;13.70;99.90;;;;;;5070136;28;20390;-39
2022/10/21 04:59:57;;;;;;;11.13;9.55;;;13.70;99.90;;;;;;5066356;28;20029;-39
2022/10/21 05:02:26;;;;;;;13.00;9.38;;;13.70;99.90;;;;;;5066674;28;20431;-41
2022/10/21 05:04:51;;;;;;;11.07;9.85;;;13.70;99.90;;;;;;5067002;28;20028;-39
2022/10/21 05:07:17;;;;;;;11.15;9.30;;;13.70;99.90;;;;;;5065304;28;20497;-38
2022/10/21 05:09:42;;;;;;;10.57;9.48;;;13.60;99.90;;;;;;5071112;28;20028;-39
2022/10/21 05:12:08;;;;;;;10.73;9.32;;;13.60;99.90;;;;;;5062244;28;20027;-40
2022/10/21 05:14:34;;;;;;;12.90;10.40;;;13.60;99.90;;;;;;5074263;28;20024;-39
2022/10/21 05:16:59;;;;;;;11.32;9.43;;;13.60;99.90;;;;;;5066178;28;20044;-39
2022/10/21 05:19:25;;;;;;;11.57;9.45;;;13.60;99.90;;;;;;5076634;28;20481;-40
2022/10/21 05:21:50;;;;;;;12.07;9.43;;;13.60;99.90;;;;;;5067230;28;20025;-40
2022/10/21 05:24:16;;;;;;;10.93;9.43;;;13.60;99.90;;;;;;5073130;28;20078;-39
2022/10/21 05:26:42;;;;;;;10.75;9.05;;;13.60;99.90;;;;;;5086662;28;20630;-39
2022/10/21 05:29:07;;;;;;;11.18;9.88;;;13.50;99.90;;;;;;5073245;28;20037;-41
2022/10/21 05:31:33;;;;;;;10.93;9.40;;;13.50;99.90;;;;;;5086635;28;20047;-39
2022/10/21 05:33:58;;;;;;;12.00;9.38;;;13.50;99.90;;;;;;5074877;28;20039;-40
2022/10/21 05:36:24;;;;;;;12.52;9.90;;;13.50;99.90;;;;;;5080246;28;20849;-40
2022/10/21 05:38:50;;;;;;;12.13;9.57;;;13.50;99.90;;;;;;5074159;28;20793;-39
2022/10/21 05:41:15;;;;;;;12.13;9.48;;;13.50;99.90;;;;;;5069430;28;20025;-40
2022/10/21 05:43:44;;;;;;;12.45;9.70;;;13.50;99.90;;;;;;5068157;28;20020;-37
2022/10/21 05:46:10;;;;;;;12.35;9.80;;;13.50;99.90;;;;;;5075584;28;20797;-40
2022/10/21 05:48:36;;;;;;;10.95;9.27;;;13.40;99.90;;;;;;5080989;28;20028;-40
2022/10/21 05:51:02;;;;;;;11.32;9.30;;;13.40;99.90;;;;;;5074448;28;20078;-38
2022/10/21 05:53:28;;;;;;;15.52;9.80;;;13.50;99.90;;;;;;5066035;28;20068;-41
2022/10/21 05:55:59;;;;;;;10.60;9.60;;;13.40;99.90;;;;;;5065223;28;20059;-40
2022/10/21 05:58:25;;;;;;;11.25;9.38;;;13.50;99.90;;;;;;5070313;28;20028;-40
2022/10/21 06:00:53;;;;;;;10.90;9.23;;;13.40;99.90;;;;;;5072471;28;20020;-40
2022/10/21 06:03:28;;;;;;;11.52;9.05;;;13.50;99.90;;;;;;5083998;28;20503;-40
2022/10/21 06:05:55;;;;;;;10.35;8.65;;;13.40;99.90;;;;;;5075520;28;20773;-38
2022/10/21 06:08:21;;;;;;;10.13;8.40;;;13.40;99.90;;;;;;5064036;28;20035;-40
2022/10/21 06:10:46;;;;;;;10.05;9.05;;;13.40;99.90;;;;;;5075827;28;20028;-38
2022/10/21 06:13:12;;;;;;;10.20;9.00;;;13.40;99.90;;;;;;5062996;28;20590;-41
2022/10/21 06:15:37;;;;;;;10.35;8.07;;;13.40;99.90;;;;;;5075807;28;20066;-41
2022/10/21 06:18:03;;;;;;;11.02;8.05;;;13.50;99.90;;;;;;5063346;28;20035;-39
2022/10/21 06:20:29;;;;;;;8.85;7.95;;;13.40;99.90;;;;;;5073899;28;20028;-37
2022/10/21 06:22:54;;;;;;;11.50;8.68;;;13.40;99.90;;;;;;5065876;28;20056;-41
2022/10/21 06:25:20;;;;;;;11.85;8.65;;;13.40;99.90;;;;;;5071400;28;20024;-40
2022/10/21 06:27:46;;;;;;;10.02;8.43;;;13.40;99.90;;;;;;5069596;28;20467;-38
2022/10/21 06:30:11;;;;;;;10.55;8.80;;;13.40;99.90;;;;;;5068569;28;20622;-39
2022/10/21 06:32:40;;;;;;;9.50;8.23;;;13.40;99.90;;;;;;5071402;28;20057;-39
2022/10/21 06:35:05;;;;;;;10.10;8.30;;;13.50;99.90;;;;;;5066899;28;20028;-40
2022/10/21 06:37:31;;;;;;;9.98;8.40;;;13.50;99.90;;;;;;5072651;28;20533;-41
2022/10/21 06:39:57;;;;;;;9.05;8.15;;;13.50;99.90;;;;;;5065566;28;20317;-37
2022/10/21 06:42:22;;;;;;;10.82;8.73;;;13.50;99.90;;;;;;5074842;28;20071;-39
2022/10/21 06:44:48;;;;;;;9.35;8.20;;;13.50;99.90;;;;;;5065926;28;20032;-39
2022/10/21 06:47:13;;;;;;;12.45;8.55;;;13.60;99.90;;;;;;5080624;28;20070;-40
2022/10/21 06:49:39;;;;;;;12.10;8.27;;;13.60;99.90;;;;;;5084651;28;20596;-40
2022/10/21 06:52:07;;;;;;;9.57;8.35;;;13.70;99.90;;;;;;5071300;28;20565;-39
2022/10/21 06:54:33;;;;;;;11.32;8.55;;;13.70;99.90;;;;;;5076505;28;20048;-38
2022/10/21 06:56:59;;;;;;;10.20;8.77;;;13.70;99.90;;;;;;5076326;28;20759;-40
2022/10/21 06:59:24;;;;;;;10.07;8.40;;;13.80;99.90;;;;;;5066083;28;20043;-40
2022/10/21 07:01:50;;;;;;;9.30;8.02;;;13.80;99.90;;;;;;5073964;28;20130;-40
2022/10/21 07:04:15;;;;;;;9.95;8.32;;;13.80;99.90;;;;;;5080716;28;20020;-40
2022/10/21 07:06:41;;;;;;;9.05;7.60;;;13.90;99.90;;;;;;5076748;28;20016;-41
2022/10/21 07:09:07;;;;;;;12.30;8.63;;;13.90;99.90;;;;;;5079575;28;20028;-39
2022/10/21 07:11:33;;;;;;;10.05;7.78;;;14.00;99.90;;;;;;5078949;28;20035;-41
2022/10/21 07:14:00;;;;;;;9.93;8.30;;;14.00;99.90;;;;;;5077026;28;20036;-39
2022/10/21 07:16:28;;;;;;;8.30;7.50;;;14.00;99.90;;;;;;5081178;28;20016;-39
2022/10/21 07:18:55;;;;;;;10.05;7.85;;;14.10;99.90;;;;;;5071887;28;20408;-41
2022/10/21 07:21:22;;;;;;;9.32;7.63;;;14.10;99.90;;;;;;5081103;28;20031;-40
2022/10/21 07:23:52;;;;;;;9.02;7.40;;;14.20;99.90;;;;;;5071393;28;20651;-41
2022/10/21 07:26:19;;;;;;;9.38;7.10;;;14.20;99.90;;;;;;5080222;28;20122;-39
2022/10/21 07:28:46;;;;;;;9.38;7.60;;;14.20;99.90;;;;;;5072432;28;20042;-40
2022/10/21 07:31:17;;;;;;;11.18;7.95;;;14.20;99.90;;;;;;5082737;28;20048;-39
2022/10/21 07:33:43;;;;;;;10.20;7.72;;;14.30;99.90;;;;;;5070346;28;20059;-38
2022/10/21 07:36:13;;;;;;;10.95;7.70;;;14.30;99.90;;;;;;5084350;28;20078;-40
2022/10/21 07:38:42;;;;;;;9.48;7.55;;;14.40;99.90;;;;;;5056933;28;20143;-38
2022/10/21 07:41:13;;;;;;;10.48;7.78;;;14.40;99.90;;;;;;5062690;28;20029;-40
2022/10/21 07:43:42;;;;;;;9.60;7.38;;;14.40;99.90;;;;;;5075252;28;20024;-40
2022/10/21 07:46:07;;;;;;;7.70;6.90;;;14.50;99.90;;;;;;5062629;28;20126;-41
2022/10/21 07:48:33;;;;;;;7.88;6.60;;;14.50;99.90;;;;;;5074725;28;20028;-39
2022/10/21 07:51:07;;;;;;;7.75;6.50;;;14.50;99.90;;;;;;5064918;28;20036;-41
2022/10/21 07:53:33;;;;;;;8.25;6.60;;;14.60;99.90;;;;;;5072608;28;20119;-40
2022/10/21 07:56:06;;;;;;;7.45;6.60;;;14.60;99.90;;;;;;5082841;28;20107;-40
2022/10/21 07:58:34;;;;;;;9.40;7.30;;;14.60;99.90;;;;;;5074672;28;20013;-39
2022/10/21 08:01:01;;;;;;;7.60;6.60;;;14.70;99.90;;;;;;5079149;28;20020;-39
2022/10/21 08:03:27;;;;;;;9.25;7.13;;;14.70;99.90;;;;;;5076230;28;20024;-40
2022/10/21 08:05:54;;;;;;;10.48;6.93;;;14.80;99.90;;;;;;5077265;28;20032;-39
2022/10/21 08:08:22;;;;;;;8.52;6.60;;;14.80;99.90;;;;;;5078571;28;20023;-38
2022/10/21 08:10:50;;;;;;;9.10;6.63;;;14.80;99.90;;;;;;5074871;28;20358;-40
2022/10/21 08:13:16;;;;;;;6.88;6.18;;;14.80;99.90;;;;;;5080870;28;20036;-39
2022/10/21 08:15:47;;;;;;;7.93;6.20;;;14.90;99.90;;;;;;5072126;28;20566;-39
2022/10/21 08:18:13;;;;;;;7.30;6.28;;;14.90;99.90;;;;;;5081124;28;20137;-41
2022/10/21 08:20:40;;;;;;;7.32;6.63;;;15.00;99.90;;;;;;5071816;28;20190;-38
2022/10/21 08:23:06;;;;;;;8.55;6.53;;;15.10;99.90;;;;;;5070773;28;20375;-35
2022/10/21 08:25:33;;;;;;;7.40;6.50;;;15.10;99.90;;;;;;5074697;28;20071;-38
2022/10/21 08:27:58;;;;;;;8.77;7.38;;;15.10;99.90;;;;;;5063552;28;20056;-40
2022/10/21 08:30:30;;;;;;;7.82;6.85;;;15.20;99.90;;;;;;5075613;28;20143;-39
2022/10/21 08:32:56;;;;;;;8.10;7.10;;;15.20;99.90;;;;;;5062536;28;20097;-38
2022/10/21 08:35:22;;;;;;;9.65;7.38;;;15.30;99.90;;;;;;5073809;28;20075;-41
2022/10/21 08:37:48;;;;;;;9.40;7.60;;;15.30;99.90;;;;;;5062909;28;20539;-38
2022/10/21 08:40:14;;;;;;;8.48;6.90;;;15.30;99.90;;;;;;5071927;28;20028;-40
2022/10/21 08:42:44;;;;;;;9.05;7.07;;;15.30;99.90;;;;;;5063745;28;20032;-39
2022/10/21 08:45:30;;;;;;;7.78;6.95;;;15.30;99.90;;;;;;5071266;28;20027;-40
2022/10/21 08:48:01;;;;;;;7.82;6.65;;;15.40;99.90;;;;;;5063563;28;20081;-39
2022/10/21 08:50:34;;;;;;;6.70;5.70;;;15.40;99.90;;;;;;5073415;28;20427;-40
2022/10/21 08:53:05;;;;;;;6.93;6.05;;;15.40;99.90;;;;;;5068630;28;20043;-40
2022/10/21 08:55:37;;;;;;;8.90;5.83;;;15.40;99.90;;;;;;5076436;28;20103;-40
2022/10/21 08:58:04;;;;;;;8.02;6.22;;;15.50;99.90;;;;;;5069133;28;20024;-40
2022/10/21 09:01:00;;;;;;;8.13;6.00;;;15.50;99.90;;;;;;5073854;28;20008;-39
2022/10/21 09:03:45;;;;;;;6.45;5.85;;;15.50;99.90;;;;;;5065001;28;20068;-41
2022/10/21 09:06:18;;;;;;;7.50;6.07;;;15.60;99.90;;;;;;5077713;28;20045;-39
2022/10/21 09:08:46;;;;;;;;;;;15.60;99.90;;;;;;5066756;28;20021;-40
2022/10/21 09:11:22;;;;;;;6.18;5.47;;;15.60;99.90;;;;;;5075704;28;19969;-39
2022/10/21 09:14:17;;;;;;;7.10;5.80;;;15.60;99.90;;;;;;5066472;28;20032;-39
2022/10/21 09:17:09;;;;;;;6.20;5.60;;;15.60;99.90;;;;;;5061114;28;20143;-38
2022/10/21 09:20:00;;;;;;;6.70;5.97;;;15.60;99.90;;;;;;5066064;28;20468;-39
2022/10/21 09:22:47;;;;;;;6.22;5.63;;;15.70;99.90;;;;;;5074851;28;20379;-39
2022/10/21 09:25:15;;;;;;;7.72;5.80;;;15.70;99.90;;;;;;5083797;28;20040;-39
2022/10/21 09:27:41;;;;;;;7.18;5.10;;;15.70;99.90;;;;;;5075730;28;20032;-40
2022/10/21 09:30:12;;;;;;;6.85;4.68;;;15.70;99.90;;;;;;5086509;28;20031;-41
2022/10/21 09:32:40;;;;;;;6.00;4.97;;;15.80;99.90;;;;;;5073205;28;20075;-41
2022/10/21 09:35:19;;;;;;;5.53;4.50;;;15.80;99.90;;;;;;5086086;28;20020;-41
2022/10/21 09:37:52;;;;;;;5.03;4.53;;;15.80;99.90;;;;;;5078317;28;20032;-40
2022/10/21 09:40:24;;;;;;;4.88;4.38;;;15.90;99.90;;;;;;5065334;28;20033;-38
2022/10/21 09:42:54;;;;;;;5.30;4.40;;;16.00;99.90;;;;;;5078606;28;20111;-40
2022/10/21 09:45:46;;;;;;;5.00;3.88;;;16.00;99.90;;;;;;5064326;28;20154;-41
2022/10/21 09:48:17;;;;;;;4.68;4.20;;;16.00;99.90;;;;;;5073415;28;20115;-40
2022/10/21 09:51:05;;;;;;;7.00;3.90;;;16.10;99.90;;;;;;5086810;28;20133;-41
2022/10/21 09:53:34;;;;;;;5.78;3.75;;;16.10;99.90;;;;;;5073521;28;20105;-37
2022/10/21 09:56:10;;;;;;;3.50;3.20;;;16.10;99.90;;;;;;5067883;28;20476;-40
2022/10/21 09:58:35;;;;;;;5.82;3.35;;;16.10;99.90;;;;;;5074329;28;20038;-38
2022/10/21 10:01:02;;;;;;;4.70;3.55;;;16.20;99.90;;;;;;5086004;28;20504;-39
2022/10/21 10:03:33;;;;;;;3.08;2.78;;;16.10;99.90;;;;;;5071696;28;20043;-42
2022/10/21 10:06:01;;;;;;;5.63;2.97;;;16.10;99.90;;;;;;5085693;28;20888;-39
2022/10/21 10:08:32;;;;;;;3.67;2.80;;;16.10;99.90;;;;;;5071892;28;20039;-40
2022/10/21 10:11:01;;;;;;;4.30;2.90;;;16.10;99.90;;;;;;5085647;28;20734;-41
2022/10/21 10:13:28;;;;;;;5.15;3.15;;;16.20;99.90;;;;;;5072379;28;20036;-40
2022/10/21 10:15:54;;;;;;;4.45;3.83;;;16.20;99.90;;;;;;5084976;28;20475;-40
2022/10/21 10:18:21;;;;;;;3.60;2.90;;;16.30;99.90;;;;;;5075721;28;20063;-40
2022/10/21 10:21:04;;;;;;;5.78;3.60;;;16.40;99.90;;;;;;5082099;28;20119;-41
2022/10/21 10:23:29;;;;;;;3.65;3.35;;;16.40;99.90;;;;;;5075852;28;20029;-38
2022/10/21 10:25:55;;;;;;;3.88;3.47;;;16.50;99.90;;;;;;5082018;28;20792;-40
2022/10/21 10:28:24;;;;;;;5.57;3.30;;;16.60;99.90;;;;;;5077588;28;20021;-39
2022/10/21 10:30:53;;;;;;;5.47;3.28;;;16.70;99.90;;;;;;5080358;28;20485;-39
2022/10/21 10:33:31;;;;;;;3.67;3.30;;;16.80;99.90;;;;;;5079619;28;20517;-40
2022/10/21 10:35:59;;;;;;;4.07;3.35;;;16.80;99.90;;;;;;5078421;28;20051;-39
2022/10/21 10:38:35;;;;;;;4.57;3.67;;;16.90;99.90;;;;;;5079693;28;20020;-39
2022/10/21 10:41:09;;;;;;;5.50;3.47;;;16.90;99.90;;;;;;5078533;28;20028;-38
2022/10/21 10:44:07;;;;;;;3.40;3.10;;;17.00;99.90;;;;;;5079764;28;20028;-40
2022/10/21 10:46:35;;;;;;;2.88;2.58;;;17.10;99.90;;;;;;5080415;28;20044;-37
2022/10/21 10:49:12;;;;;;;4.40;3.25;;;17.10;99.90;;;;;;5077908;28;20503;-39
2022/10/21 10:51:41;;;;;;;4.55;3.88;;;17.10;99.90;;;;;;5080608;28;20032;-40
2022/10/21 10:54:19;;;;;;;3.38;3.08;;;17.10;99.90;;;;;;5079996;28;20091;-38
2022/10/21 10:56:52;;;;;;;5.30;3.67;;;17.10;99.90;;;;;;5084259;28;20495;-41
2022/10/21 10:59:39;;;;;;;4.68;3.90;;;17.10;99.90;;;;;;5077848;28;20044;-40
2022/10/21 11:02:20;;;;;;;4.43;3.97;;;17.20;99.90;;;;;;5080698;28;20502;-40
2022/10/21 11:05:17;;;;;;;5.95;3.58;;;17.20;99.90;;;;;;5074948;28;20032;-39
2022/10/21 11:07:54;;;;;;;3.95;3.53;;;17.30;99.90;;;;;;5064580;28;20102;-40
2022/10/21 11:10:31;;;;;;;3.85;3.20;;;17.30;99.90;;;;;;5074734;28;20035;-40
2022/10/21 11:13:02;;;;;;;5.82;3.55;;;17.40;99.90;;;;;;5064908;28;20037;-40
2022/10/21 11:15:53;;;;;;;5.53;3.83;;;17.40;99.90;;;;;;5074402;28;20020;-34
2022/10/21 11:18:36;;;;;;;5.82;3.47;;;17.40;99.90;;;;;;5063385;28;20111;-39
2022/10/21 11:21:27;;;;;;;5.40;3.47;;;17.40;99.90;;;;;;5076891;28;20066;-38
2022/10/21 11:24:10;;;;;;;5.55;3.47;;;17.50;99.90;;;;;;5063822;28;20101;-40
2022/10/21 11:27:04;;;;;;;4.07;3.38;;;17.50;99.90;;;;;;5075403;28;20434;-39
2022/10/21 11:29:56;;;;;;;3.75;3.03;;;17.60;99.90;;;;;;5064400;28;20032;-39
2022/10/21 11:32:56;;;;;;;4.35;3.22;;;17.60;99.90;;;;;;5072436;28;20128;-41
2022/10/21 11:35:49;;;;;;;4.95;3.55;;;17.60;99.90;;;;;;5077610;28;20043;-40
2022/10/21 11:38:40;;;;;;;4.15;3.60;;;17.60;99.90;;;;;;5079266;28;20051;-40
2022/10/21 11:41:40;;;;;;;3.65;3.33;;;17.60;99.90;;;;;;5073858;28;20786;-43
2022/10/21 11:44:40;;;;;;;4.50;3.72;;;17.70;99.90;;;;;;5007766;28;20302;-42
2022/10/21 11:47:24;;;;;;;6.55;3.70;;;17.70;99.90;;;;;;5078328;28;20025;-38
2022/10/21 11:50:11;;;;;;;3.70;3.30;;;17.80;99.90;;;;;;5064085;28;20033;-39
2022/10/21 11:52:36;;;;;;;3.00;2.70;;;17.80;99.90;;;;;;5074620;28;20037;-39
2022/10/21 11:55:30;;;;;;;4.18;3.00;;;17.90;99.90;;;;;;5064060;28;20025;-38
2022/10/21 11:58:03;;;;;;;4.50;3.35;;;18.00;99.90;;;;;;5082543;28;20395;-41
2022/10/21 12:00:44;;;;;;;2.72;2.53;;;18.10;99.90;;;;;;5081477;28;20028;-39
2022/10/21 12:03:38;;;;;;;3.50;3.20;;;18.20;99.90;;;;;;5072154;28;20032;-40
2022/10/21 12:06:12;;;;;;;4.30;3.00;;;18.20;99.90;;;;;;5080973;28;20035;-40
2022/10/21 12:08:57;;;;;;;4.50;3.08;;;18.20;99.90;;;;;;5074168;28;20114;-40
2022/10/21 12:11:33;;;;;;;3.22;2.92;;;18.20;99.90;;;;;;5080044;28;20040;-41
2022/10/21 12:14:27;;;;;;;3.58;2.70;;;18.30;99.90;;;;;;5074774;28;20043;-41
2022/10/21 12:16:59;;;;;;;4.95;2.67;;;18.30;99.90;;;;;;5077093;28;20016;-40
2022/10/21 12:19:25;;;;;;;;;;;18.30;99.90;;;;;;5077394;28;20032;-40
2022/10/21 12:21:51;;;;;;;2.90;2.47;;;18.30;99.90;;;;;;5078815;28;19994;-40
2022/10/21 12:24:29;;;;;;;3.90;2.80;;;18.40;99.90;;;;;;5074230;28;20060;-39
2022/10/21 12:27:23;;;;;;;3.85;3.15;;;18.40;99.90;;;;;;5079283;28;20028;-36
2022/10/21 12:30:11;;;;;;;3.88;2.70;;;18.50;99.90;;;;;;5078259;28;20036;-40
2022/10/21 12:33:06;;;;;;;3.97;2.30;;;18.60;99.90;;;;;;5075413;28;20504;-41
2022/10/21 12:36:10;;;;;;;2.63;2.28;;;18.70;99.90;;;;;;5081121;28;20106;-39
2022/10/21 12:38:52;;;;;;;2.70;2.45;;;18.80;99.90;;;;;;5070809;28;20032;-40
2022/10/21 12:41:33;;;;;;;4.45;3.28;;;18.80;99.90;;;;;;5082021;28;20783;-41
2022/10/21 12:44:02;;;;;;;3.33;3.00;;;18.80;99.90;;;;;;5070382;28;20024;-40
2022/10/21 12:46:35;;;;;;;2.88;2.58;;;18.70;99.90;;;;;;5083048;28;20028;-41
2022/10/21 12:49:19;;;;;;;6.00;3.40;;;18.70;99.90;;;;;;5069526;28;20484;-40
2022/10/21 12:52:02;;;;;;;3.53;2.35;;;18.80;99.90;;;;;;5083343;28;20055;-40
2022/10/21 12:54:33;;;;;;;3.63;2.50;;;18.80;99.90;;;;;;5067796;28;20038;-39
2022/10/21 12:57:04;;;;;;;3.83;2.33;;;18.80;99.90;;;;;;5067859;28;20028;-40
2022/10/21 12:59:32;;;;;;;3.17;2.85;;;18.80;99.90;;;;;;5070598;28;20483;-37
2022/10/21 13:02:03;;;;;;;4.93;3.10;;;18.80;99.90;;;;;;5083004;28;20064;-41